sensor_id;sensor_type;location;lat;lon;timestamp;pressure;altitude;pressure_sealevel;temperature;humidity
5522;BME280;2783;48.730;8.006;2023-04-19T00:00:32;100623.69;;;13.32;82.34
5522;BME280;2783;48.730;8.006;2023-04-19T00:02:58;100625.47;;;13.33;82.74
5522;BME280;2783;48.730;8.006;2023-04-19T00:05:24;100621.25;;;13.26;82.96
5522;BME280;2783;48.730;8.006;2023-04-19T00:07:50;100615.78;;;13.29;83.35
5522;BME280;2783;48.730;8.006;2023-04-19T00:10:15;100617.59;;;13.28;83.66
5522;BME280;2783;48.730;8.006;2023-04-19T00:12:40;100624.81;;;13.26;83.56
5522;BME280;2783;48.730;8.006;2023-04-19T00:15:06;100619.41;;;13.28;83.37
5522;BME280;2783;48.730;8.006;2023-04-19T00:17:32;100620.16;;;13.31;83.80
5522;BME280;2783;48.730;8.006;2023-04-19T00:19:57;100611.56;;;13.21;83.69
5522;BME280;2783;48.730;8.006;2023-04-19T00:22:22;100610.75;;;13.19;84.66
5522;BME280;2783;48.730;8.006;2023-04-19T00:24:48;100612.63;;;13.17;84.28
5522;BME280;2783;48.730;8.006;2023-04-19T00:27:13;100610.84;;;13.16;84.58
5522;BME280;2783;48.730;8.006;2023-04-19T00:29:38;100609.84;;;13.20;85.01
5522;BME280;2783;48.730;8.006;2023-04-19T00:32:03;100610.84;;;13.16;84.61
5522;BME280;2783;48.730;8.006;2023-04-19T00:34:30;100614.69;;;13.08;84.48
5522;BME280;2783;48.730;8.006;2023-04-19T00:36:55;100609.41;;;13.06;85.48
5522;BME280;2783;48.730;8.006;2023-04-19T00:39:20;100607.56;;;13.08;85.77
5522;BME280;2783;48.730;8.006;2023-04-19T00:41:46;100607.47;;;13.11;85.86
5522;BME280;2783;48.730;8.006;2023-04-19T00:44:11;100606.78;;;13.05;84.66
5522;BME280;2783;48.730;8.006;2023-04-19T00:46:36;100605.13;;;13.02;85.51
5522;BME280;2783;48.730;8.006;2023-04-19T00:49:02;100608.75;;;12.98;85.58
5522;BME280;2783;48.730;8.006;2023-04-19T00:51:27;100598.91;;;13.00;85.52
5522;BME280;2783;48.730;8.006;2023-04-19T00:53:52;100608.63;;;13.04;85.49
5522;BME280;2783;48.730;8.006;2023-04-19T00:56:18;100612.19;;;13.03;85.50
5522;BME280;2783;48.730;8.006;2023-04-19T00:58:45;100611.38;;;13.00;85.77
5522;BME280;2783;48.730;8.006;2023-04-19T01:01:11;100606.19;;;12.95;85.22
5522;BME280;2783;48.730;8.006;2023-04-19T01:03:37;100610.66;;;12.95;85.69
5522;BME280;2783;48.730;8.006;2023-04-19T01:06:02;100607.13;;;12.94;85.69
5522;BME280;2783;48.730;8.006;2023-04-19T01:08:27;100608.09;;;12.92;85.61
5522;BME280;2783;48.730;8.006;2023-04-19T01:10:53;100600.75;;;12.98;85.81
5522;BME280;2783;48.730;8.006;2023-04-19T01:13:18;100598.34;;;12.91;85.98
5522;BME280;2783;48.730;8.006;2023-04-19T01:15:43;100589.47;;;12.90;85.69
5522;BME280;2783;48.730;8.006;2023-04-19T01:18:09;100596.78;;;12.84;85.77
5522;BME280;2783;48.730;8.006;2023-04-19T01:20:35;100582.50;;;12.86;86.47
5522;BME280;2783;48.730;8.006;2023-04-19T01:23:00;100582.66;;;12.80;86.33
5522;BME280;2783;48.730;8.006;2023-04-19T01:25:25;100590.44;;;12.88;86.55
5522;BME280;2783;48.730;8.006;2023-04-19T01:27:51;100582.31;;;12.91;86.37
5522;BME280;2783;48.730;8.006;2023-04-19T01:30:16;100584.00;;;12.93;86.82
5522;BME280;2783;48.730;8.006;2023-04-19T01:32:41;100581.28;;;12.95;86.57
5522;BME280;2783;48.730;8.006;2023-04-19T01:35:07;100578.53;;;12.98;86.42
5522;BME280;2783;48.730;8.006;2023-04-19T01:37:35;100580.38;;;12.96;86.70
5522;BME280;2783;48.730;8.006;2023-04-19T01:40:00;100583.81;;;12.99;86.63
5522;BME280;2783;48.730;8.006;2023-04-19T01:42:25;100580.63;;;12.88;87.24
5522;BME280;2783;48.730;8.006;2023-04-19T01:44:51;100575.50;;;12.82;87.26
5522;BME280;2783;48.730;8.006;2023-04-19T01:47:16;100580.78;;;12.84;86.88
5522;BME280;2783;48.730;8.006;2023-04-19T01:49:41;100578.00;;;12.87;86.31
5522;BME280;2783;48.730;8.006;2023-04-19T01:52:07;100573.66;;;12.84;86.55
5522;BME280;2783;48.730;8.006;2023-04-19T01:54:32;100573.81;;;12.78;85.74
5522;BME280;2783;48.730;8.006;2023-04-19T01:56:57;100569.31;;;12.80;86.60
5522;BME280;2783;48.730;8.006;2023-04-19T01:59:22;100573.94;;;12.75;86.58
5522;BME280;2783;48.730;8.006;2023-04-19T02:01:48;100564.41;;;12.68;86.69
5522;BME280;2783;48.730;8.006;2023-04-19T02:04:13;100563.53;;;12.68;87.12
5522;BME280;2783;48.730;8.006;2023-04-19T02:06:38;100561.81;;;12.65;87.30
5522;BME280;2783;48.730;8.006;2023-04-19T02:09:04;100561.75;;;12.67;87.70
5522;BME280;2783;48.730;8.006;2023-04-19T02:11:29;100556.41;;;12.68;88.25
5522;BME280;2783;48.730;8.006;2023-04-19T02:13:54;100551.97;;;12.67;87.53
5522;BME280;2783;48.730;8.006;2023-04-19T02:16:20;100552.13;;;12.63;88.05
5522;BME280;2783;48.730;8.006;2023-04-19T02:18:45;100557.50;;;12.61;88.08
5522;BME280;2783;48.730;8.006;2023-04-19T02:21:12;100547.00;;;12.57;88.08
5522;BME280;2783;48.730;8.006;2023-04-19T02:23:37;100555.13;;;12.52;87.93
5522;BME280;2783;48.730;8.006;2023-04-19T02:26:03;100551.53;;;12.53;87.93
5522;BME280;2783;48.730;8.006;2023-04-19T02:28:28;100549.78;;;12.52;88.42
5522;BME280;2783;48.730;8.006;2023-04-19T02:30:54;100555.13;;;12.52;88.65
5522;BME280;2783;48.730;8.006;2023-04-19T02:33:20;100547.13;;;12.52;88.04
5522;BME280;2783;48.730;8.006;2023-04-19T02:35:46;100549.00;;;12.49;88.32
5522;BME280;2783;48.730;8.006;2023-04-19T02:38:11;100550.63;;;12.54;88.52
5522;BME280;2783;48.730;8.006;2023-04-19T02:40:36;100547.06;;;12.54;88.22
5522;BME280;2783;48.730;8.006;2023-04-19T02:43:02;100544.38;;;12.54;88.68
5522;BME280;2783;48.730;8.006;2023-04-19T02:45:27;100547.16;;;12.51;88.72
5522;BME280;2783;48.730;8.006;2023-04-19T02:47:52;100543.50;;;12.55;88.91
5522;BME280;2783;48.730;8.006;2023-04-19T02:50:18;100541.78;;;12.52;88.83
5522;BME280;2783;48.730;8.006;2023-04-19T02:52:43;100536.44;;;12.52;88.70
5522;BME280;2783;48.730;8.006;2023-04-19T02:55:08;100543.72;;;12.47;87.97
5522;BME280;2783;48.730;8.006;2023-04-19T02:57:34;100543.59;;;12.52;88.72
5522;BME280;2783;48.730;8.006;2023-04-19T02:59:59;100547.06;;;12.54;88.43
5522;BME280;2783;48.730;8.006;2023-04-19T03:02:24;100549.88;;;12.49;88.11
5522;BME280;2783;48.730;8.006;2023-04-19T03:04:50;100546.50;;;12.44;88.29
5522;BME280;2783;48.730;8.006;2023-04-19T03:07:15;100544.06;;;12.37;88.35
5522;BME280;2783;48.730;8.006;2023-04-19T03:09:41;100541.09;;;12.46;88.55
5522;BME280;2783;48.730;8.006;2023-04-19T03:12:06;100536.59;;;12.48;88.42
5522;BME280;2783;48.730;8.006;2023-04-19T03:14:31;100532.16;;;12.48;87.82
5522;BME280;2783;48.730;8.006;2023-04-19T03:16:58;100539.59;;;12.37;88.82
5522;BME280;2783;48.730;8.006;2023-04-19T03:19:23;100534.56;;;12.28;88.91
5522;BME280;2783;48.730;8.006;2023-04-19T03:21:48;100529.31;;;12.25;88.69
5522;BME280;2783;48.730;8.006;2023-04-19T03:24:13;100525.53;;;12.32;89.04
5522;BME280;2783;48.730;8.006;2023-04-19T03:26:39;100529.13;;;12.31;89.96
5522;BME280;2783;48.730;8.006;2023-04-19T03:29:05;100493.34;;;12.11;89.46
5522;BME280;2783;48.730;8.006;2023-04-19T03:31:30;100525.50;;;12.34;89.13
5522;BME280;2783;48.730;8.006;2023-04-19T03:33:56;100525.72;;;12.26;89.77
5522;BME280;2783;48.730;8.006;2023-04-19T03:36:21;100518.81;;;12.19;89.99
5522;BME280;2783;48.730;8.006;2023-04-19T03:38:46;100524.09;;;12.22;89.52
5522;BME280;2783;48.730;8.006;2023-04-19T03:41:24;100518.81;;;12.19;89.51
5522;BME280;2783;48.730;8.006;2023-04-19T03:43:50;100525.72;;;12.26;89.71
5522;BME280;2783;48.730;8.006;2023-04-19T03:46:15;100523.09;;;12.25;89.75
5522;BME280;2783;48.730;8.006;2023-04-19T03:48:40;100519.50;;;12.26;89.65
5522;BME280;2783;48.730;8.006;2023-04-19T03:51:06;100518.75;;;12.22;88.94
5522;BME280;2783;48.730;8.006;2023-04-19T03:53:31;100517.19;;;12.15;89.49
5522;BME280;2783;48.730;8.006;2023-04-19T03:55:56;100516.22;;;12.18;90.02
5522;BME280;2783;48.730;8.006;2023-04-19T03:58:21;100517.16;;;12.17;89.43
5522;BME280;2783;48.730;8.006;2023-04-19T04:00:47;100512.69;;;12.17;89.97
5522;BME280;2783;48.730;8.006;2023-04-19T04:03:12;100517.16;;;12.17;89.66
5522;BME280;2783;48.730;8.006;2023-04-19T04:05:38;100511.66;;;12.21;89.97
5522;BME280;2783;48.730;8.006;2023-04-19T04:08:03;100517.81;;;12.23;89.63
5522;BME280;2783;48.730;8.006;2023-04-19T04:10:28;100514.19;;;12.26;89.33
5522;BME280;2783;48.730;8.006;2023-04-19T04:12:54;100518.66;;;12.25;89.63
5522;BME280;2783;48.730;8.006;2023-04-19T04:15:19;100520.38;;;12.26;90.25
5522;BME280;2783;48.730;8.006;2023-04-19T04:17:44;100520.53;;;12.22;89.51
5522;BME280;2783;48.730;8.006;2023-04-19T04:20:10;100517.25;;;12.14;90.12
5522;BME280;2783;48.730;8.006;2023-04-19T04:22:43;100524.47;;;12.10;90.05
5522;BME280;2783;48.730;8.006;2023-04-19T04:25:11;100520.91;;;12.10;89.75
5522;BME280;2783;48.730;8.006;2023-04-19T04:27:37;100517.34;;;12.11;89.81
5522;BME280;2783;48.730;8.006;2023-04-19T04:30:04;100516.41;;;12.12;90.11
5522;BME280;2783;48.730;8.006;2023-04-19T04:32:29;100520.97;;;12.08;89.67
5522;BME280;2783;48.730;8.006;2023-04-19T04:34:55;100520.09;;;12.08;89.63
5522;BME280;2783;48.730;8.006;2023-04-19T04:37:20;100526.41;;;12.05;89.31
5522;BME280;2783;48.730;8.006;2023-04-19T04:39:46;100521.06;;;12.05;89.26
5522;BME280;2783;48.730;8.006;2023-04-19T04:42:11;100529.13;;;12.04;89.72
5522;BME280;2783;48.730;8.006;2023-04-19T04:44:37;100528.06;;;12.09;89.62
5522;BME280;2783;48.730;8.006;2023-04-19T04:47:03;100526.97;;;12.15;90.07
5522;BME280;2783;48.730;8.006;2023-04-19T04:49:28;100529.59;;;12.16;89.59
5522;BME280;2783;48.730;8.006;2023-04-19T04:51:53;100533.28;;;12.12;89.79
5522;BME280;2783;48.730;8.006;2023-04-19T04:54:19;100534.94;;;12.16;89.35
5522;BME280;2783;48.730;8.006;2023-04-19T04:56:45;100531.53;;;12.11;89.28
5522;BME280;2783;48.730;8.006;2023-04-19T04:59:10;100534.16;;;12.13;89.25
5522;BME280;2783;48.730;8.006;2023-04-19T05:01:35;100527.75;;;12.18;89.58
5522;BME280;2783;48.730;8.006;2023-04-19T05:04:01;100533.41;;;12.08;89.79
5522;BME280;2783;48.730;8.006;2023-04-19T05:06:26;100533.41;;;12.09;90.16
5522;BME280;2783;48.730;8.006;2023-04-19T05:08:51;100534.94;;;12.16;89.39
5522;BME280;2783;48.730;8.006;2023-04-19T05:11:16;100534.03;;;12.17;89.35
5522;BME280;2783;48.730;8.006;2023-04-19T05:13:42;100538.28;;;12.23;89.16
5522;BME280;2783;48.730;8.006;2023-04-19T05:16:07;100525.03;;;12.20;89.82
5522;BME280;2783;48.730;8.006;2023-04-19T05:18:32;100535.50;;;12.26;89.21
5522;BME280;2783;48.730;8.006;2023-04-19T05:20:58;100534.59;;;12.27;89.45
5522;BME280;2783;48.730;8.006;2023-04-19T05:23:23;100538.06;;;12.30;89.68
5522;BME280;2783;48.730;8.006;2023-04-19T05:25:48;100534.56;;;12.28;88.81
5522;BME280;2783;48.730;8.006;2023-04-19T05:28:14;100537.97;;;12.33;88.92
5522;BME280;2783;48.730;8.006;2023-04-19T05:30:39;100533.31;;;12.40;88.50
5522;BME280;2783;48.730;8.006;2023-04-19T05:33:05;100542.31;;;12.36;88.77
5522;BME280;2783;48.730;8.006;2023-04-19T05:35:30;100543.19;;;12.36;88.01
5522;BME280;2783;48.730;8.006;2023-04-19T05:37:55;100536.03;;;12.38;88.33
5522;BME280;2783;48.730;8.006;2023-04-19T05:40:20;100542.19;;;12.40;87.21
5522;BME280;2783;48.730;8.006;2023-04-19T05:42:47;100537.38;;;12.51;87.83
5522;BME280;2783;48.730;8.006;2023-04-19T05:45:14;100539.16;;;12.51;87.66
5522;BME280;2783;48.730;8.006;2023-04-19T05:47:40;100546.09;;;12.56;87.22
5522;BME280;2783;48.730;8.006;2023-04-19T05:50:05;100545.91;;;12.62;86.93
5522;BME280;2783;48.730;8.006;2023-04-19T05:52:31;100539.72;;;12.60;85.88
5522;BME280;2783;48.730;8.006;2023-04-19T05:54:56;100540.44;;;12.65;86.24
5522;BME280;2783;48.730;8.006;2023-04-19T05:57:22;100537.38;;;12.77;86.35
5522;BME280;2783;48.730;8.006;2023-04-19T05:59:47;100540.06;;;12.77;85.36
5522;BME280;2783;48.730;8.006;2023-04-19T06:02:12;100546.94;;;12.84;85.38
5522;BME280;2783;48.730;8.006;2023-04-19T06:04:38;100546.84;;;12.87;84.20
5522;BME280;2783;48.730;8.006;2023-04-19T06:07:03;100545.09;;;12.86;84.46
5522;BME280;2783;48.730;8.006;2023-04-19T06:09:28;100550.41;;;12.88;84.70
5522;BME280;2783;48.730;8.006;2023-04-19T06:11:53;100543.78;;;12.99;84.14
5522;BME280;2783;48.730;8.006;2023-04-19T06:14:19;100549.53;;;13.13;84.51
5522;BME280;2783;48.730;8.006;2023-04-19T06:16:44;100553.03;;;13.15;84.08
5522;BME280;2783;48.730;8.006;2023-04-19T06:19:09;100550.41;;;13.14;83.56
5522;BME280;2783;48.730;8.006;2023-04-19T06:21:34;100553.13;;;13.12;82.91
5522;BME280;2783;48.730;8.006;2023-04-19T06:24:00;100552.25;;;13.12;82.69
5522;BME280;2783;48.730;8.006;2023-04-19T06:26:25;100551.50;;;13.08;83.32
5522;BME280;2783;48.730;8.006;2023-04-19T06:28:50;100553.63;;;13.23;82.63
5522;BME280;2783;48.730;8.006;2023-04-19T06:31:16;100544.84;;;13.20;82.84
5522;BME280;2783;48.730;8.006;2023-04-19T06:33:41;100554.03;;;13.11;82.58
5522;BME280;2783;48.730;8.006;2023-04-19T06:36:06;100546.63;;;13.21;82.77
5522;BME280;2783;48.730;8.006;2023-04-19T06:38:32;100554.34;;;13.29;82.36
5522;BME280;2783;48.730;8.006;2023-04-19T06:40:57;100561.41;;;13.30;82.02
5522;BME280;2783;48.730;8.006;2023-04-19T06:43:23;100556.66;;;13.39;82.08
5522;BME280;2783;48.730;8.006;2023-04-19T06:45:48;100558.66;;;13.33;81.69
5522;BME280;2783;48.730;8.006;2023-04-19T06:48:13;100554.06;;;13.36;81.59
5522;BME280;2783;48.730;8.006;2023-04-19T06:50:38;100554.56;;;13.47;81.30
5522;BME280;2783;48.730;8.006;2023-04-19T06:53:04;100571.25;;;13.54;81.18
5522;BME280;2783;48.730;8.006;2023-04-19T06:55:29;100561.44;;;13.54;81.91
5522;BME280;2783;48.730;8.006;2023-04-19T06:57:55;100562.31;;;13.55;80.69
5522;BME280;2783;48.730;8.006;2023-04-19T07:00:20;100551.19;;;13.67;80.66
5522;BME280;2783;48.730;8.006;2023-04-19T07:02:46;100553.56;;;13.74;79.85
5522;BME280;2783;48.730;8.006;2023-04-19T07:05:12;100565.47;;;13.89;80.35
5522;BME280;2783;48.730;8.006;2023-04-19T07:07:38;100553.75;;;13.93;79.19
5522;BME280;2783;48.730;8.006;2023-04-19T07:10:05;100552.13;;;13.89;79.40
5522;BME280;2783;48.730;8.006;2023-04-19T07:12:31;100559.63;;;14.02;78.07
5522;BME280;2783;48.730;8.006;2023-04-19T07:14:56;100559.09;;;14.16;77.98
5522;BME280;2783;48.730;8.006;2023-04-19T07:17:22;100549.09;;;14.44;78.25
5522;BME280;2783;48.730;8.006;2023-04-19T07:19:47;100554.28;;;14.70;77.05
5522;BME280;2783;48.730;8.006;2023-04-19T07:22:13;100549.72;;;14.72;75.66
5522;BME280;2783;48.730;8.006;2023-04-19T07:24:38;100549.53;;;14.98;75.95
5522;BME280;2783;48.730;8.006;2023-04-19T07:27:05;100540.03;;;15.11;74.32
5522;BME280;2783;48.730;8.006;2023-04-19T07:29:33;100536.38;;;15.54;74.46
5522;BME280;2783;48.730;8.006;2023-04-19T07:31:58;100544.63;;;15.88;73.66
5522;BME280;2783;48.730;8.006;2023-04-19T07:34:25;100538.72;;;16.00;69.96
5522;BME280;2783;48.730;8.006;2023-04-19T07:36:50;100540.47;;;16.20;70.58
5522;BME280;2783;48.730;8.006;2023-04-19T07:39:16;100540.19;;;16.26;70.24
5522;BME280;2783;48.730;8.006;2023-04-19T07:41:41;100537.50;;;16.07;69.30
5522;BME280;2783;48.730;8.006;2023-04-19T07:44:06;100531.84;;;16.32;69.70
5522;BME280;2783;48.730;8.006;2023-04-19T07:46:31;100539.75;;;16.35;69.57
5522;BME280;2783;48.730;8.006;2023-04-19T07:48:57;100539.59;;;16.38;68.73
5522;BME280;2783;48.730;8.006;2023-04-19T07:51:22;100535.41;;;16.51;68.22
5522;BME280;2783;48.730;8.006;2023-04-19T07:53:48;100544.84;;;16.59;68.57
5522;BME280;2783;48.730;8.006;2023-04-19T07:56:14;100542.28;;;16.75;67.63
5522;BME280;2783;48.730;8.006;2023-04-19T07:58:39;100544.66;;;16.81;66.99
5522;BME280;2783;48.730;8.006;2023-04-19T08:01:05;100549.03;;;16.65;66.24
5522;BME280;2783;48.730;8.006;2023-04-19T08:03:32;100550.78;;;16.66;66.99
5522;BME280;2783;48.730;8.006;2023-04-19T08:05:59;100542.34;;;16.73;67.90
5522;BME280;2783;48.730;8.006;2023-04-19T08:08:26;100543.94;;;16.77;66.83
5522;BME280;2783;48.730;8.006;2023-04-19T08:10:51;100531.13;;;16.82;66.02
5522;BME280;2783;48.730;8.006;2023-04-19T08:13:19;100536.53;;;16.64;65.96
5522;BME280;2783;48.730;8.006;2023-04-19T08:15:44;100528.69;;;16.41;64.12
5522;BME280;2783;48.730;8.006;2023-04-19T08:18:10;100524.66;;;16.51;65.26
5522;BME280;2783;48.730;8.006;2023-04-19T08:20:35;100526.84;;;16.61;65.47
5522;BME280;2783;48.730;8.006;2023-04-19T08:23:00;100526.75;;;16.63;64.66
5522;BME280;2783;48.730;8.006;2023-04-19T08:25:26;100526.47;;;16.86;66.82
5522;BME280;2783;48.730;8.006;2023-04-19T08:27:54;100527.69;;;16.97;64.88
5522;BME280;2783;48.730;8.006;2023-04-19T08:30:21;100525.22;;;17.10;66.25
5522;BME280;2783;48.730;8.006;2023-04-19T08:32:46;100524.84;;;17.00;64.20
5522;BME280;2783;48.730;8.006;2023-04-19T08:35:12;100519.22;;;16.88;63.58
5522;BME280;2783;48.730;8.006;2023-04-19T08:37:37;100528.09;;;16.90;64.96
5522;BME280;2783;48.730;8.006;2023-04-19T08:40:03;100527.59;;;16.99;63.50
5522;BME280;2783;48.730;8.006;2023-04-19T08:42:30;100517.50;;;17.21;65.58
5522;BME280;2783;48.730;8.006;2023-04-19T08:44:55;100523.69;;;17.23;61.62
5522;BME280;2783;48.730;8.006;2023-04-19T08:47:22;100523.06;;;17.18;63.41
5522;BME280;2783;48.730;8.006;2023-04-19T08:49:47;100516.00;;;17.33;63.37
5522;BME280;2783;48.730;8.006;2023-04-19T08:52:13;100522.09;;;17.36;63.27
5522;BME280;2783;48.730;8.006;2023-04-19T08:54:39;100514.66;;;17.41;63.53
5522;BME280;2783;48.730;8.006;2023-04-19T08:57:05;100516.09;;;17.48;62.22
5522;BME280;2783;48.730;8.006;2023-04-19T08:59:32;100525.25;;;17.61;62.64
5522;BME280;2783;48.730;8.006;2023-04-19T09:02:01;100531.41;;;17.80;63.79
5522;BME280;2783;48.730;8.006;2023-04-19T09:04:26;100526.47;;;17.88;62.68
5522;BME280;2783;48.730;8.006;2023-04-19T09:06:52;100521.44;;;17.82;60.03
5522;BME280;2783;48.730;8.006;2023-04-19T09:09:18;100522.06;;;17.70;58.89
5522;BME280;2783;48.730;8.006;2023-04-19T09:11:44;100517.13;;;17.95;61.85
5522;BME280;2783;48.730;8.006;2023-04-19T09:14:10;100514.50;;;18.09;59.06
5522;BME280;2783;48.730;8.006;2023-04-19T09:16:35;100510.53;;;18.16;58.02
5522;BME280;2783;48.730;8.006;2023-04-19T09:19:04;100505.66;;;18.38;57.10
5522;BME280;2783;48.730;8.006;2023-04-19T09:21:30;100508.84;;;18.47;57.65
5522;BME280;2783;48.730;8.006;2023-04-19T09:23:55;100514.22;;;18.62;57.32
5522;BME280;2783;48.730;8.006;2023-04-19T09:26:21;100507.63;;;18.68;55.42
5522;BME280;2783;48.730;8.006;2023-04-19T09:31:21;100490.56;;;18.83;54.27
5522;BME280;2783;48.730;8.006;2023-04-19T09:33:46;100491.00;;;19.05;55.69
5522;BME280;2783;48.730;8.006;2023-04-19T09:36:12;100484.19;;;19.29;55.19
5522;BME280;2783;48.730;8.006;2023-04-19T09:38:51;100491.59;;;19.39;52.36
5522;BME280;2783;48.730;8.006;2023-04-19T09:41:16;100483.09;;;19.75;53.04
5522;BME280;2783;48.730;8.006;2023-04-19T09:43:41;100477.28;;;20.09;52.95
5522;BME280;2783;48.730;8.006;2023-04-19T09:46:07;100477.84;;;20.28;50.87
5522;BME280;2783;48.730;8.006;2023-04-19T09:48:32;100482.28;;;20.29;49.74
5522;BME280;2783;48.730;8.006;2023-04-19T09:50:58;100469.84;;;20.27;49.44
5522;BME280;2783;48.730;8.006;2023-04-19T09:53:25;100467.00;;;20.42;50.26
5522;BME280;2783;48.730;8.006;2023-04-19T09:55:50;100468.38;;;20.35;49.84
5522;BME280;2783;48.730;8.006;2023-04-19T09:58:16;100457.03;;;20.57;48.48
5522;BME280;2783;48.730;8.006;2023-04-19T10:00:42;100455.09;;;20.59;49.96
5522;BME280;2783;48.730;8.006;2023-04-19T10:03:08;100463.94;;;20.61;47.14
5522;BME280;2783;48.730;8.006;2023-04-19T10:05:35;100457.03;;;20.43;47.91
5522;BME280;2783;48.730;8.006;2023-04-19T10:08:08;100452.69;;;20.28;48.21
5522;BME280;2783;48.730;8.006;2023-04-19T10:10:34;100443.50;;;20.30;48.32
5522;BME280;2783;48.730;8.006;2023-04-19T10:13:02;100446.19;;;20.83;49.45
5522;BME280;2783;48.730;8.006;2023-04-19T10:15:28;100445.97;;;20.86;47.90
5522;BME280;2783;48.730;8.006;2023-04-19T10:17:54;100442.25;;;20.62;47.99
5522;BME280;2783;48.730;8.006;2023-04-19T10:20:22;100443.16;;;21.15;50.09
5522;BME280;2783;48.730;8.006;2023-04-19T10:22:48;100438.28;;;21.32;49.56
5522;BME280;2783;48.730;8.006;2023-04-19T10:25:14;100435.50;;;21.46;47.47
5522;BME280;2783;48.730;8.006;2023-04-19T10:27:40;100440.25;;;21.55;44.76
5522;BME280;2783;48.730;8.006;2023-04-19T10:30:18;100430.81;;;21.98;46.50
5522;BME280;2783;48.730;8.006;2023-04-19T10:32:45;100419.19;;;22.45;46.21
5522;BME280;2783;48.730;8.006;2023-04-19T10:35:53;100424.91;;;23.11;43.56
5522;BME280;2783;48.730;8.006;2023-04-19T10:38:14;100416.44;;;22.81;43.82
5522;BME280;2783;48.730;8.006;2023-04-19T10:43:15;100418.69;;;21.54;45.46
5522;BME280;2783;48.730;8.006;2023-04-19T10:45:43;100412.66;;;21.63;46.04
5522;BME280;2783;48.730;8.006;2023-04-19T10:51:12;100411.34;;;21.81;47.11
5522;BME280;2783;48.730;8.006;2023-04-19T10:56:08;100404.28;;;22.63;45.61
5522;BME280;2783;48.730;8.006;2023-04-19T11:01:51;100397.44;;;22.81;44.38
5522;BME280;2783;48.730;8.006;2023-04-19T11:04:09;100404.13;;;22.05;43.43
5522;BME280;2783;48.730;8.006;2023-04-19T11:06:35;100390.53;;;22.17;45.65
5522;BME280;2783;48.730;8.006;2023-04-19T11:09:01;100403.72;;;21.98;45.02
5522;BME280;2783;48.730;8.006;2023-04-19T11:11:32;100388.41;;;22.10;46.02
5522;BME280;2783;48.730;8.006;2023-04-19T11:13:57;100387.78;;;22.77;44.52
5522;BME280;2783;48.730;8.006;2023-04-19T11:16:24;100396.69;;;22.56;43.20
5522;BME280;2783;48.730;8.006;2023-04-19T11:18:50;100382.38;;;22.30;44.32
5522;BME280;2783;48.730;8.006;2023-04-19T11:21:18;100382.47;;;22.05;46.05
5522;BME280;2783;48.730;8.006;2023-04-19T11:23:47;100380.81;;;22.15;45.09
5522;BME280;2783;48.730;8.006;2023-04-19T11:26:17;100375.22;;;22.76;45.34
5522;BME280;2783;48.730;8.006;2023-04-19T11:28:43;100380.81;;;22.86;45.13
5522;BME280;2783;48.730;8.006;2023-04-19T11:31:08;100368.59;;;23.48;43.47
5522;BME280;2783;48.730;8.006;2023-04-19T11:33:34;100362.81;;;23.64;41.77
5522;BME280;2783;48.730;8.006;2023-04-19T11:35:59;100358.59;;;23.93;41.65
5522;BME280;2783;48.730;8.006;2023-04-19T11:38:30;100362.91;;;23.95;42.84
5522;BME280;2783;48.730;8.006;2023-04-19T11:40:59;100362.78;;;24.08;43.76
5522;BME280;2783;48.730;8.006;2023-04-19T11:43:35;100351.22;;;23.62;43.15
5522;BME280;2783;48.730;8.006;2023-04-19T11:46:18;100352.19;;;24.05;43.87
5522;BME280;2783;48.730;8.006;2023-04-19T11:48:52;100339.69;;;24.45;40.33
5522;BME280;2783;48.730;8.006;2023-04-19T11:51:18;100340.97;;;24.41;41.37
5522;BME280;2783;48.730;8.006;2023-04-19T11:53:44;100350.66;;;24.86;41.20
5522;BME280;2783;48.730;8.006;2023-04-19T11:56:10;100343.84;;;24.71;40.66
5522;BME280;2783;48.730;8.006;2023-04-19T11:58:36;100337.13;;;24.75;39.58
5522;BME280;2783;48.730;8.006;2023-04-19T12:01:03;100338.72;;;24.66;39.26
5522;BME280;2783;48.730;8.006;2023-04-19T12:03:30;100325.91;;;24.89;40.59
5522;BME280;2783;48.730;8.006;2023-04-19T12:05:57;100336.31;;;25.25;39.72
5522;BME280;2783;48.730;8.006;2023-04-19T12:08:33;100329.63;;;24.67;39.80
5522;BME280;2783;48.730;8.006;2023-04-19T12:10:58;100331.53;;;24.45;40.65
5522;BME280;2783;48.730;8.006;2023-04-19T12:13:24;100336.75;;;24.37;41.03
5522;BME280;2783;48.730;8.006;2023-04-19T12:15:50;100324.56;;;24.20;41.35
5522;BME280;2783;48.730;8.006;2023-04-19T12:18:15;100327.63;;;24.27;43.63
5522;BME280;2783;48.730;8.006;2023-04-19T12:20:44;100319.47;;;24.27;41.56
5522;BME280;2783;48.730;8.006;2023-04-19T12:23:10;100330.28;;;24.49;41.96
5522;BME280;2783;48.730;8.006;2023-04-19T12:25:38;100325.19;;;24.87;40.69
5522;BME280;2783;48.730;8.006;2023-04-19T12:28:03;100324.00;;;25.01;41.45
5522;BME280;2783;48.730;8.006;2023-04-19T12:30:29;100321.91;;;24.93;40.31
5522;BME280;2783;48.730;8.006;2023-04-19T12:32:54;100326.50;;;24.72;41.92
5522;BME280;2783;48.730;8.006;2023-04-19T12:35:23;100324.91;;;24.58;41.59
5522;BME280;2783;48.730;8.006;2023-04-19T12:37:49;100314.25;;;24.35;39.72
5522;BME280;2783;48.730;8.006;2023-04-19T12:40:14;100321.75;;;24.11;42.42
5522;BME280;2783;48.730;8.006;2023-04-19T12:42:40;100314.00;;;23.95;43.53
5522;BME280;2783;48.730;8.006;2023-04-19T12:45:05;100320.41;;;25.00;40.83
5522;BME280;2783;48.730;8.006;2023-04-19T12:47:31;100321.72;;;24.85;40.67
5522;BME280;2783;48.730;8.006;2023-04-19T12:49:56;100324.03;;;24.58;42.49
5522;BME280;2783;48.730;8.006;2023-04-19T12:52:22;100311.63;;;24.13;43.09
5522;BME280;2783;48.730;8.006;2023-04-19T12:54:47;100309.13;;;23.67;44.17
5522;BME280;2783;48.730;8.006;2023-04-19T12:57:12;100316.38;;;23.44;43.44
5522;BME280;2783;48.730;8.006;2023-04-19T12:59:37;100309.19;;;23.21;44.49
5522;BME280;2783;48.730;8.006;2023-04-19T13:02:04;100315.91;;;22.48;44.48
5522;BME280;2783;48.730;8.006;2023-04-19T13:04:29;100310.28;;;21.68;45.77
5522;BME280;2783;48.730;8.006;2023-04-19T13:06:55;100316.50;;;20.94;48.56
5522;BME280;2783;48.730;8.006;2023-04-19T13:09:20;100314.75;;;20.68;49.49
5522;BME280;2783;48.730;8.006;2023-04-19T13:11:45;100317.00;;;20.62;50.99
5522;BME280;2783;48.730;8.006;2023-04-19T13:14:10;100308.47;;;20.55;50.54
5522;BME280;2783;48.730;8.006;2023-04-19T13:16:36;100307.56;;;20.42;52.89